Cato Island, Australia
Current Conditions -  °F | °C
As of 11:00 PM on Friday 24 Oct 2014 (Local Time) from YBUD Reporting Station
Clear Clear  
Wind Chill: 17°   Ceiling: Unl
Heat Index: 17°   Visibility: 6mi
Dew Point: 13°   Wind: 3mph
Humidity: 77%   Direction: 180°S
Pressure: 30.15"   Gusts: NA
Location:  23.25°S, 155.53°E
Report Text: YBUD 241300Z AUTO 18003KT 9999 // NCD 17/13 Q1021
Loading
Personal Weather Stations






























Interactive Weather Map
Tropical Storm Tracking
New forecast layout! Learn more

10-Day Weather Forecast

Advertisements
Track Severe Weather on mobile